createdAt,value
2023-02-26T00:02:24.734Z,96270.97
2023-02-26T00:06:27.369Z,96279.22
2023-02-26T00:10:31.367Z,96282.06
2023-02-26T00:14:33.092Z,96286.84
2023-02-26T00:18:37.395Z,96294.31
2023-02-26T00:22:39.282Z,96298.38
2023-02-26T00:26:42.836Z,96297.09
2023-02-26T00:30:45.289Z,96307.22
2023-02-26T00:34:50.498Z,96308.63
2023-02-26T00:39:09.981Z,96299.63
2023-02-26T00:43:16.880Z,96317.53
2023-02-26T00:47:33.691Z,96312.81
2023-02-26T00:51:54.215Z,96320.97
2023-02-26T00:55:54.744Z,96323.47
2023-02-26T00:59:55.579Z,96322.88
2023-02-26T01:04:00.735Z,96331.22
2023-02-26T01:08:16.928Z,96328.84
2023-02-26T01:12:18.594Z,96328.94
2023-02-26T01:16:31.467Z,96325.09
2023-02-26T01:20:41.804Z,96323.88
2023-02-26T01:24:49.665Z,96319.56
2023-02-26T01:28:51.214Z,96325.34
2023-02-26T01:33:03.114Z,96322.03
2023-02-26T01:37:17.050Z,96323.81
2023-02-26T01:41:34.261Z,96324.19
2023-02-26T01:45:42.483Z,96321.53
2023-02-26T01:49:44.050Z,96326.84
2023-02-26T01:53:44.695Z,96333.72
2023-02-26T01:57:50.429Z,96334.22
2023-02-26T02:01:51.156Z,96332.84
2023-02-26T02:05:59.731Z,96335.09
2023-02-26T02:10:00.156Z,96341.28
2023-02-26T02:14:21.736Z,96334.88
2023-02-26T02:18:34.867Z,96344.69
2023-02-26T02:22:59.816Z,96345.88
2023-02-26T02:27:11.237Z,96357.31
2023-02-26T02:31:21.095Z,96353.78
2023-02-26T02:35:29.711Z,96367.91
2023-02-26T02:39:35.513Z,96360.72
2023-02-26T02:43:40.967Z,96365.81
2023-02-26T02:47:51.459Z,96372.91
2023-02-26T02:51:59.245Z,96374.84
2023-02-26T02:56:07.400Z,96375.88
2023-02-26T03:00:16.719Z,96376.91
2023-02-26T03:04:21.503Z,96382.75
2023-02-26T03:08:30.166Z,96385.06
2023-02-26T03:12:36.577Z,96392.22
2023-02-26T03:17:05.180Z,96394.53
2023-02-26T03:21:21.617Z,96411.91
2023-02-26T03:25:33.395Z,96411.44
2023-02-26T03:29:46.166Z,96416.91
2023-02-26T03:33:57.130Z,96418.50
2023-02-26T03:38:08.079Z,96425.34
2023-02-26T03:42:18.028Z,96433.63
2023-02-26T03:46:33.824Z,96434.75
2023-02-26T03:50:41.391Z,96437.69
2023-02-26T03:55:14.794Z,96440.59
2023-02-26T03:59:31.534Z,96451.78
2023-02-26T04:04:03.545Z,96448.09
2023-02-26T04:08:06.095Z,96457.16
2023-02-26T04:12:11.488Z,96458.78
2023-02-26T04:16:15.799Z,96464.47
2023-02-26T04:20:16.664Z,96467.56
2023-02-26T04:24:18.509Z,96468.22
2023-02-26T04:28:22.280Z,96473.38
2023-02-26T04:32:23.411Z,96484.38
2023-02-26T04:36:25.411Z,96479.81
2023-02-26T04:40:27.740Z,96478.84
2023-02-26T04:44:31.164Z,96478.78
2023-02-26T04:48:34.449Z,96482.72
2023-02-26T04:52:35.144Z,96479.63
2023-02-26T04:56:36.933Z,96484.00
2023-02-26T05:00:40.578Z,96492.06
2023-02-26T05:04:42.265Z,96496.28
2023-02-26T05:08:43.866Z,96495.31
2023-02-26T05:12:44.676Z,96502.09
2023-02-26T05:16:47.930Z,96509.25
2023-02-26T05:20:48.361Z,96510.06
2023-02-26T05:24:49.143Z,96514.63
2023-02-26T05:28:49.829Z,96515.94
2023-02-26T05:32:53.171Z,96519.03
2023-02-26T05:36:53.879Z,96514.53
2023-02-26T05:40:54.581Z,96534.22
2023-02-26T05:44:55.300Z,96537.59
2023-02-26T05:48:59.322Z,96532.59
2023-02-26T05:53:00.696Z,96540.53
2023-02-26T05:57:02.116Z,96548.00
2023-02-26T06:01:03.664Z,96555.66
2023-02-26T06:05:07.879Z,96562.31
2023-02-26T06:09:09.118Z,96575.94
2023-02-26T06:13:10.237Z,96582.09
2023-02-26T06:17:11.040Z,96572.84
2023-02-26T06:21:14.372Z,96591.19
2023-02-26T06:25:14.974Z,96592.84
2023-02-26T06:29:15.659Z,96603.22
2023-02-26T06:33:16.728Z,96611.97
2023-02-26T06:37:20.644Z,96617.78
2023-02-26T06:41:22.221Z,96623.94
2023-02-26T06:45:25.319Z,96625.84
2023-02-26T06:49:25.978Z,96643.72
2023-02-26T06:53:29.855Z,96641.56
2023-02-26T06:57:30.268Z,96657.13
2023-02-26T07:01:32.268Z,96657.72
2023-02-26T07:05:32.975Z,96667.63
2023-02-26T07:09:36.003Z,96669.97
2023-02-26T07:13:36.556Z,96677.50
2023-02-26T07:17:40.404Z,96685.22
2023-02-26T07:21:41.450Z,96686.94
2023-02-26T07:25:44.726Z,96695.28
2023-02-26T07:29:45.241Z,96693.22
2023-02-26T07:33:45.751Z,96708.75
2023-02-26T07:37:46.093Z,96710.13
2023-02-26T07:41:49.415Z,96715.00
2023-02-26T07:45:49.797Z,96720.47
2023-02-26T07:49:50.478Z,96718.78
2023-02-26T07:53:51.012Z,96731.59
2023-02-26T07:57:54.319Z,96727.63
2023-02-26T08:01:54.725Z,96731.63
2023-02-26T08:05:55.130Z,96745.50
2023-02-26T08:09:55.986Z,96746.28
2023-02-26T08:13:59.536Z,96735.19
2023-02-26T08:18:00.652Z,96759.53
2023-02-26T08:22:01.250Z,96770.09
2023-02-26T08:26:06.046Z,96759.88
2023-02-26T08:30:11.889Z,96755.31
2023-02-26T08:34:12.799Z,96764.22
2023-02-26T08:38:13.832Z,96774.44
2023-02-26T08:42:16.592Z,96790.81
2023-02-26T08:46:19.600Z,96788.09
2023-02-26T08:50:20.631Z,96805.47
2023-02-26T08:54:21.439Z,96804.44
2023-02-26T08:58:23.631Z,96811.00
2023-02-26T09:02:26.921Z,96811.47
2023-02-26T09:06:28.079Z,96813.47
2023-02-26T09:10:28.954Z,96816.38
2023-02-26T09:14:29.884Z,96817.75
2023-02-26T09:18:33.441Z,96836.19
2023-02-26T09:22:34.425Z,96838.72
2023-02-26T09:26:35.150Z,96831.84
2023-02-26T09:30:36.700Z,96832.44
2023-02-26T09:34:40.856Z,96849.63
2023-02-26T09:38:43.531Z,96851.16
2023-02-26T09:43:10.866Z,96856.19
2023-02-26T09:47:20.893Z,96860.31
2023-02-26T09:51:28.589Z,96875.44
2023-02-26T09:55:35.029Z,96884.22
2023-02-26T09:59:37.543Z,96882.34
2023-02-26T10:03:57.747Z,96895.38
2023-02-26T10:08:08.342Z,96897.69
2023-02-26T10:12:15.401Z,96868.28
2023-02-26T10:16:23.513Z,96900.81
2023-02-26T10:20:33.695Z,96910.50
2023-02-26T10:24:47.304Z,96915.75
2023-02-26T10:29:01.042Z,96913.47
2023-02-26T10:33:13.488Z,96928.78
2023-02-26T10:37:22.480Z,96929.47
2023-02-26T10:41:33.032Z,96933.19
2023-02-26T10:46:02.277Z,96939.22
2023-02-26T10:50:07.617Z,96936.31
2023-02-26T10:54:24.078Z,96944.13
2023-02-26T10:58:29.045Z,96934.56
2023-02-26T11:02:45.822Z,96942.59
2023-02-26T11:06:53.851Z,96919.94
2023-02-26T11:10:59.570Z,96928.03
2023-02-26T11:15:05.751Z,96933.41
2023-02-26T11:19:09.788Z,96921.88
2023-02-26T11:23:16.743Z,96917.97
2023-02-26T11:27:22.309Z,96919.75
2023-02-26T11:31:29.517Z,96886.88
2023-02-26T11:35:31.161Z,96910.44
2023-02-26T11:39:37.793Z,96906.38
2023-02-26T11:43:45.882Z,96905.34
2023-02-26T11:47:51.637Z,96907.28
2023-02-26T11:52:08.476Z,96901.59
2023-02-26T11:56:16.718Z,96898.06
2023-02-26T12:00:27.309Z,96878.72
2023-02-26T12:04:30.467Z,96896.94
2023-02-26T12:08:42.515Z,96863.22
2023-02-26T12:13:02.210Z,96915.63
2023-02-26T12:17:24.728Z,96907.75
2023-02-26T12:22:16.064Z,96911.41
2023-02-26T12:26:44.561Z,96903.69
2023-02-26T12:31:18.744Z,96911.56
2023-02-26T12:35:45.925Z,96908.78
2023-02-26T12:40:06.713Z,96918.25
2023-02-26T12:44:30.989Z,96925.28
2023-02-26T12:49:07.222Z,96912.69
2023-02-26T12:53:41.839Z,96904.47
2023-02-26T12:58:19.373Z,96917.81
2023-02-26T13:03:03.505Z,96914.78
2023-02-26T13:07:52.547Z,96914.19
2023-02-26T13:12:09.853Z,96933.63
2023-02-26T13:16:28.807Z,96923.97
2023-02-26T13:20:34.481Z,96936.81
2023-02-26T13:24:43.999Z,96940.09
2023-02-26T13:28:51.867Z,96902.69
2023-02-26T13:32:58.161Z,96932.53
2023-02-26T13:37:02.734Z,96927.72
2023-02-26T13:41:15.338Z,96935.22
2023-02-26T13:45:42.209Z,96925.47
2023-02-26T13:50:04.716Z,96926.97
2023-02-26T13:54:31.351Z,96944.88
2023-02-26T13:58:40.822Z,96941.88
2023-02-26T14:02:59.335Z,96954.69
2023-02-26T14:07:03.595Z,96964.13
2023-02-26T14:11:29.584Z,96974.69
2023-02-26T14:15:51.967Z,96986.41
2023-02-26T14:20:26.362Z,96978.53
2023-02-26T14:24:36.971Z,96979.72
2023-02-26T14:28:59.318Z,96984.06
2023-02-26T14:33:13.337Z,96986.94
2023-02-26T14:37:22.344Z,96980.78
2023-02-26T14:41:34.455Z,96981.63
2023-02-26T14:45:42.653Z,96984.03
2023-02-26T14:49:49.817Z,96994.28
2023-02-26T14:54:27.233Z,96997.63
2023-02-26T14:58:55.242Z,97004.44
2023-02-26T15:03:37.405Z,97001.00
2023-02-26T15:07:57.299Z,97026.97
2023-02-26T15:12:35.030Z,97034.31
2023-02-26T15:17:00.382Z,97036.59
2023-02-26T15:21:17.109Z,97041.25
2023-02-26T15:25:34.192Z,97031.16
2023-02-26T15:29:40.749Z,97034.41
2023-02-26T15:33:42.485Z,97035.84
2023-02-26T15:37:45.811Z,97038.84
2023-02-26T15:41:49.042Z,97057.13
2023-02-26T15:45:52.266Z,97059.47
2023-02-26T15:49:54.635Z,97071.09
2023-02-26T15:54:03.337Z,97069.25
2023-02-26T15:58:04.163Z,97081.38
2023-02-26T16:02:06.239Z,97090.75
2023-02-26T16:06:10.486Z,97094.09
2023-02-26T16:10:22.026Z,97096.06
2023-02-26T16:14:29.724Z,97086.69
2023-02-26T16:18:30.575Z,97101.31
2023-02-26T16:22:39.941Z,97101.44
2023-02-26T16:26:50.549Z,97108.81
2023-02-26T16:30:56.304Z,97115.72
2023-02-26T16:34:59.704Z,97137.44
2023-02-26T16:39:15.521Z,97142.22
2023-02-26T16:43:57.124Z,97115.69
2023-02-26T16:48:02.172Z,97172.38
2023-02-26T16:52:04.438Z,97182.22
2023-02-26T16:56:06.868Z,97194.28
2023-02-26T17:00:29.814Z,97195.94
2023-02-26T17:04:35.284Z,97207.09
2023-02-26T17:08:39.662Z,97214.25
2023-02-26T17:12:48.665Z,97221.44
2023-02-26T17:16:53.527Z,97223.94
2023-02-26T17:20:54.706Z,97224.41
2023-02-26T17:24:55.577Z,97217.56
2023-02-26T17:28:56.341Z,97229.63
2023-02-26T17:32:59.299Z,97233.53
2023-02-26T17:37:06.011Z,97230.91
2023-02-26T17:41:07.117Z,97239.09
2023-02-26T17:45:08.190Z,97242.47
2023-02-26T17:49:14.362Z,97256.75
2023-02-26T17:53:15.016Z,97251.38
2023-02-26T17:57:22.282Z,97266.00
2023-02-26T18:01:23.609Z,97274.41
2023-02-26T18:05:29.284Z,97270.53
2023-02-26T18:09:30.004Z,97263.00
2023-02-26T18:13:32.116Z,97271.94
2023-02-26T18:17:34.402Z,97273.53
2023-02-26T18:21:38.496Z,97273.97
2023-02-26T18:25:39.740Z,97272.13
2023-02-26T18:29:40.361Z,97282.66
2023-02-26T18:33:41.863Z,97281.03
2023-02-26T18:37:45.422Z,97281.13
2023-02-26T18:41:46.421Z,97253.25
2023-02-26T18:45:49.390Z,97288.47
2023-02-26T18:49:51.480Z,97295.78
2023-02-26T18:53:54.499Z,97302.00
2023-02-26T18:57:57.853Z,97308.03
2023-02-26T19:01:58.364Z,97294.28
2023-02-26T19:06:00.672Z,97319.63
2023-02-26T19:10:05.429Z,97332.28
2023-02-26T19:14:06.246Z,97336.06
2023-02-26T19:18:06.824Z,97346.09
2023-02-26T19:22:07.962Z,97357.66
2023-02-26T19:26:11.942Z,97370.66
2023-02-26T19:30:14.722Z,97361.97
2023-02-26T19:34:15.894Z,97354.16
2023-02-26T19:38:16.461Z,97365.72
2023-02-26T19:42:20.851Z,97368.38
2023-02-26T19:46:21.332Z,97385.50
2023-02-26T19:50:25.635Z,97375.97
2023-02-26T19:54:26.157Z,97396.50
2023-02-26T19:58:30.845Z,97393.25
2023-02-26T20:02:31.580Z,97391.31
2023-02-26T20:06:32.480Z,97401.38
2023-02-26T20:10:33.219Z,97396.22
2023-02-26T20:14:37.678Z,97415.81
2023-02-26T20:18:38.604Z,97413.13
2023-02-26T20:22:39.487Z,97422.38
2023-02-26T20:26:40.466Z,97421.78
2023-02-26T20:30:43.522Z,97422.84
2023-02-26T20:34:44.774Z,97421.41
2023-02-26T20:38:46.558Z,97434.13
2023-02-26T20:42:47.869Z,97436.63
2023-02-26T20:46:53.014Z,97441.22
2023-02-26T20:50:54.924Z,97433.72
2023-02-26T20:54:58.674Z,97446.25
2023-02-26T20:59:02.085Z,97425.03
2023-02-26T21:03:06.063Z,97439.13
2023-02-26T21:07:22.058Z,97431.41
2023-02-26T21:11:23.737Z,97443.41
2023-02-26T21:15:27.994Z,97436.50
2023-02-26T21:19:31.480Z,97449.22
2023-02-26T21:23:32.310Z,97420.97
2023-02-26T21:27:32.953Z,97461.25
2023-02-26T21:31:33.941Z,97444.81
2023-02-26T21:35:37.299Z,97464.81
2023-02-26T21:39:39.316Z,97462.78
2023-02-26T21:43:39.964Z,97457.50
2023-02-26T21:47:42.155Z,97461.88
2023-02-26T21:51:46.623Z,97462.19
2023-02-26T21:55:47.814Z,97453.16
2023-02-26T21:59:48.530Z,97461.38
2023-02-26T22:03:49.011Z,97467.38
2023-02-26T22:07:53.044Z,97460.00
2023-02-26T22:11:53.576Z,97466.28
2023-02-26T22:15:54.017Z,97460.00
2023-02-26T22:19:55.045Z,97469.84
2023-02-26T22:24:00.457Z,97478.03
2023-02-26T22:28:01.994Z,97479.41
2023-02-26T22:32:02.647Z,97473.66
2023-02-26T22:36:03.401Z,97482.69
2023-02-26T22:40:07.125Z,97477.75
2023-02-26T22:44:09.469Z,97490.06
2023-02-26T22:48:10.050Z,97485.16
2023-02-26T22:52:11.020Z,97497.97
2023-02-26T22:56:13.992Z,97500.81
2023-02-26T23:00:21.327Z,97501.63
2023-02-26T23:04:21.975Z,97499.03
2023-02-26T23:08:22.554Z,97496.84
2023-02-26T23:12:25.585Z,97503.31
2023-02-26T23:16:25.929Z,97503.72
2023-02-26T23:20:28.369Z,97514.66
2023-02-26T23:24:29.419Z,97507.25
2023-02-26T23:28:33.292Z,97511.63
2023-02-26T23:32:33.876Z,97510.81
2023-02-26T23:36:34.623Z,97517.81
2023-02-26T23:40:35.673Z,97509.19
2023-02-26T23:44:38.615Z,97508.34
2023-02-26T23:48:39.102Z,97514.66
2023-02-26T23:52:40.047Z,97517.81
2023-02-26T23:56:40.644Z,97515.75
